sensor_id;sensor_type;location;lat;lon;timestamp;pressure;altitude;pressure_sealevel;temperature;humidity
36014;BME280;22275;43.208;27.620;2023-06-22T00:01:19;101438.38;;;24.13;100.00
36014;BME280;22275;43.208;27.620;2023-06-22T00:03:46;101448.09;;;24.06;100.00
36014;BME280;22275;43.208;27.620;2023-06-22T00:06:13;101446.50;;;24.21;100.00
36014;BME280;22275;43.208;27.620;2023-06-22T00:08:41;101452.72;;;24.21;100.00
36014;BME280;22275;43.208;27.620;2023-06-22T00:11:10;101445.81;;;23.93;100.00
36014;BME280;22275;43.208;27.620;2023-06-22T00:13:38;101449.25;;;24.03;100.00
36014;BME280;22275;43.208;27.620;2023-06-22T00:16:06;101456.44;;;23.94;100.00
36014;BME280;22275;43.208;27.620;2023-06-22T00:18:33;101455.94;;;23.99;100.00
36014;BME280;22275;43.208;27.620;2023-06-22T00:21:00;101455.50;;;24.03;100.00
36014;BME280;22275;43.208;27.620;2023-06-22T00:23:27;101458.00;;;24.05;100.00
36014;BME280;22275;43.208;27.620;2023-06-22T00:26:00;101458.31;;;24.02;100.00
36014;BME280;22275;43.208;27.620;2023-06-22T00:28:29;101449.88;;;23.97;100.00
36014;BME280;22275;43.208;27.620;2023-06-22T00:30:56;101458.84;;;24.06;100.00
36014;BME280;22275;43.208;27.620;2023-06-22T00:33:23;101461.09;;;24.10;100.00
36014;BME280;22275;43.208;27.620;2023-06-22T00:35:50;101460.34;;;24.00;100.00
36014;BME280;22275;43.208;27.620;2023-06-22T00:38:18;101472.31;;;24.06;100.00
36014;BME280;22275;43.208;27.620;2023-06-22T00:40:46;101465.53;;;24.01;100.00
36014;BME280;22275;43.208;27.620;2023-06-22T00:43:13;101466.69;;;23.91;100.00
36014;BME280;22275;43.208;27.620;2023-06-22T00:45:42;101463.19;;;23.73;100.00
36014;BME280;22275;43.208;27.620;2023-06-22T00:48:09;101466.13;;;23.62;100.00
36014;BME280;22275;43.208;27.620;2023-06-22T00:50:37;101461.66;;;23.44;100.00
36014;BME280;22275;43.208;27.620;2023-06-22T00:53:06;101465.66;;;23.40;100.00
36014;BME280;22275;43.208;27.620;2023-06-22T00:55:36;101455.91;;;23.04;100.00
36014;BME280;22275;43.208;27.620;2023-06-22T00:58:05;101458.97;;;23.09;100.00
36014;BME280;22275;43.208;27.620;2023-06-22T01:00:33;101461.81;;;23.25;100.00
36014;BME280;22275;43.208;27.620;2023-06-22T01:03:03;101454.81;;;23.32;100.00
36014;BME280;22275;43.208;27.620;2023-06-22T01:05:35;101461.81;;;23.25;100.00
36014;BME280;22275;43.208;27.620;2023-06-22T01:08:15;101467.47;;;23.22;100.00
36014;BME280;22275;43.208;27.620;2023-06-22T01:10:46;101456.53;;;22.98;100.00
36014;BME280;22275;43.208;27.620;2023-06-22T01:13:28;101460.88;;;22.99;100.00
36014;BME280;22275;43.208;27.620;2023-06-22T01:16:00;101452.81;;;23.17;100.00
36014;BME280;22275;43.208;27.620;2023-06-22T01:18:32;101459.22;;;23.16;100.00
36014;BME280;22275;43.208;27.620;2023-06-22T01:21:02;101461.91;;;22.98;100.00
36014;BME280;22275;43.208;27.620;2023-06-22T01:23:49;101455.75;;;22.88;100.00
36014;BME280;22275;43.208;27.620;2023-06-22T01:26:20;101450.91;;;22.74;100.00
36014;BME280;22275;43.208;27.620;2023-06-22T01:28:52;101466.31;;;22.17;100.00
36014;BME280;22275;43.208;27.620;2023-06-22T01:31:23;101461.34;;;22.22;100.00
36014;BME280;22275;43.208;27.620;2023-06-22T01:33:53;101461.22;;;22.24;100.00
36014;BME280;22275;43.208;27.620;2023-06-22T01:36:22;101462.53;;;22.38;100.00
36014;BME280;22275;43.208;27.620;2023-06-22T01:38:52;101448.66;;;22.42;100.00
36014;BME280;22275;43.208;27.620;2023-06-22T01:41:20;101449.91;;;22.75;100.00
36014;BME280;22275;43.208;27.620;2023-06-22T01:43:51;101448.94;;;22.76;100.00
36014;BME280;22275;43.208;27.620;2023-06-22T01:46:20;101451.06;;;22.72;100.00
36014;BME280;22275;43.208;27.620;2023-06-22T01:48:48;101459.81;;;22.74;100.00
36014;BME280;22275;43.208;27.620;2023-06-22T01:51:15;101458.00;;;22.93;100.00
36014;BME280;22275;43.208;27.620;2023-06-22T01:53:42;101460.19;;;22.97;100.00
36014;BME280;22275;43.208;27.620;2023-06-22T01:56:09;101465.28;;;23.00;100.00
36014;BME280;22275;43.208;27.620;2023-06-22T01:58:44;101477.56;;;23.20;100.00
36014;BME280;22275;43.208;27.620;2023-06-22T02:01:20;101476.16;;;23.16;100.00
36014;BME280;22275;43.208;27.620;2023-06-22T02:03:54;101480.63;;;23.25;100.00
36014;BME280;22275;43.208;27.620;2023-06-22T02:06:27;101474.63;;;23.14;100.00
36014;BME280;22275;43.208;27.620;2023-06-22T02:09:06;101474.31;;;23.17;100.00
36014;BME280;22275;43.208;27.620;2023-06-22T02:11:36;101473.03;;;23.21;100.00
36014;BME280;22275;43.208;27.620;2023-06-22T02:14:05;101465.22;;;23.10;100.00
36014;BME280;22275;43.208;27.620;2023-06-22T02:16:35;101476.56;;;23.04;100.00
36014;BME280;22275;43.208;27.620;2023-06-22T02:19:03;101473.72;;;23.05;100.00
36014;BME280;22275;43.208;27.620;2023-06-22T02:21:32;101463.34;;;23.10;100.00
36014;BME280;22275;43.208;27.620;2023-06-22T02:24:00;101477.94;;;23.08;100.00
36014;BME280;22275;43.208;27.620;2023-06-22T02:26:28;101475.09;;;23.09;100.00
36014;BME280;22275;43.208;27.620;2023-06-22T02:28:55;101477.94;;;23.43;100.00
36014;BME280;22275;43.208;27.620;2023-06-22T02:31:23;101477.28;;;23.67;100.00
36014;BME280;22275;43.208;27.620;2023-06-22T02:34:00;101482.75;;;23.57;100.00
36014;BME280;22275;43.208;27.620;2023-06-22T02:36:27;101503.03;;;22.81;100.00
36014;BME280;22275;43.208;27.620;2023-06-22T02:38:56;101515.94;;;22.41;100.00
36014;BME280;22275;43.208;27.620;2023-06-22T02:41:24;101512.75;;;22.55;100.00
36014;BME280;22275;43.208;27.620;2023-06-22T02:43:52;101504.78;;;22.72;100.00
36014;BME280;22275;43.208;27.620;2023-06-22T02:46:20;101509.16;;;22.91;100.00
36014;BME280;22275;43.208;27.620;2023-06-22T02:48:47;101508.31;;;22.90;100.00
36014;BME280;22275;43.208;27.620;2023-06-22T02:51:16;101507.06;;;23.12;100.00
36014;BME280;22275;43.208;27.620;2023-06-22T02:53:44;101507.50;;;23.25;100.00
36014;BME280;22275;43.208;27.620;2023-06-22T02:56:11;101517.91;;;23.38;100.00
36014;BME280;22275;43.208;27.620;2023-06-22T02:58:38;101502.19;;;23.33;100.00
36014;BME280;22275;43.208;27.620;2023-06-22T03:01:08;101502.34;;;23.32;100.00
36014;BME280;22275;43.208;27.620;2023-06-22T03:03:35;101506.66;;;23.25;100.00
36014;BME280;22275;43.208;27.620;2023-06-22T03:06:04;101502.47;;;23.40;100.00
36014;BME280;22275;43.208;27.620;2023-06-22T03:08:33;101505.06;;;23.50;100.00
36014;BME280;22275;43.208;27.620;2023-06-22T03:11:00;101497.06;;;23.58;100.00
36014;BME280;22275;43.208;27.620;2023-06-22T03:13:27;101505.72;;;23.34;100.00
36014;BME280;22275;43.208;27.620;2023-06-22T03:15:55;101506.44;;;23.54;100.00
36014;BME280;22275;43.208;27.620;2023-06-22T03:18:22;101492.41;;;23.68;100.00
36014;BME280;22275;43.208;27.620;2023-06-22T03:20:49;101493.38;;;23.84;100.00
36014;BME280;22275;43.208;27.620;2023-06-22T03:23:16;101503.75;;;23.79;100.00
36014;BME280;22275;43.208;27.620;2023-06-22T03:25:45;101500.72;;;23.74;100.00
36014;BME280;22275;43.208;27.620;2023-06-22T03:28:12;101503.94;;;23.78;100.00
36014;BME280;22275;43.208;27.620;2023-06-22T03:30:39;101509.78;;;23.73;100.00
36014;BME280;22275;43.208;27.620;2023-06-22T03:33:07;101510.56;;;23.66;100.00
36014;BME280;22275;43.208;27.620;2023-06-22T03:35:34;101513.25;;;23.66;100.00
36014;BME280;22275;43.208;27.620;2023-06-22T03:38:01;101515.00;;;23.75;100.00
36014;BME280;22275;43.208;27.620;2023-06-22T03:40:32;101504.97;;;23.85;100.00
36014;BME280;22275;43.208;27.620;2023-06-22T03:43:01;101507.94;;;23.99;100.00
36014;BME280;22275;43.208;27.620;2023-06-22T03:45:28;101504.44;;;24.07;100.00
36014;BME280;22275;43.208;27.620;2023-06-22T03:47:55;101506.22;;;24.16;100.00
36014;BME280;22275;43.208;27.620;2023-06-22T03:50:22;101520.63;;;24.41;100.00
36014;BME280;22275;43.208;27.620;2023-06-22T03:52:50;101514.16;;;24.59;100.00
36014;BME280;22275;43.208;27.620;2023-06-22T03:55:19;101530.78;;;24.55;100.00
36014;BME280;22275;43.208;27.620;2023-06-22T03:57:47;101525.16;;;24.74;100.00
36014;BME280;22275;43.208;27.620;2023-06-22T04:00:16;101526.47;;;24.70;100.00
36014;BME280;22275;43.208;27.620;2023-06-22T04:02:43;101536.44;;;24.78;100.00
36014;BME280;22275;43.208;27.620;2023-06-22T04:05:10;101536.25;;;24.71;100.00
36014;BME280;22275;43.208;27.620;2023-06-22T04:07:38;101539.88;;;24.80;100.00
36014;BME280;22275;43.208;27.620;2023-06-22T04:10:05;101539.97;;;24.78;100.00
36014;BME280;22275;43.208;27.620;2023-06-22T04:12:33;101541.94;;;25.10;100.00
36014;BME280;22275;43.208;27.620;2023-06-22T04:15:01;101541.94;;;25.10;100.00
36014;BME280;22275;43.208;27.620;2023-06-22T04:17:30;101536.25;;;25.37;100.00
36014;BME280;22275;43.208;27.620;2023-06-22T04:19:57;101536.44;;;25.36;100.00
36014;BME280;22275;43.208;27.620;2023-06-22T04:22:26;101549.41;;;25.24;100.00
36014;BME280;22275;43.208;27.620;2023-06-22T04:24:53;101531.69;;;25.30;100.00
36014;BME280;22275;43.208;27.620;2023-06-22T04:27:21;101534.91;;;25.41;100.00
36014;BME280;22275;43.208;27.620;2023-06-22T04:29:48;101540.13;;;25.35;100.00
36014;BME280;22275;43.208;27.620;2023-06-22T04:32:17;101533.22;;;25.24;100.00
36014;BME280;22275;43.208;27.620;2023-06-22T04:34:46;101544.00;;;25.40;100.00
36014;BME280;22275;43.208;27.620;2023-06-22T04:37:13;101547.44;;;25.58;100.00
36014;BME280;22275;43.208;27.620;2023-06-22T04:39:41;101549.44;;;25.73;100.00
36014;BME280;22275;43.208;27.620;2023-06-22T04:42:09;101543.72;;;25.76;100.00
36014;BME280;22275;43.208;27.620;2023-06-22T04:44:36;101545.91;;;25.96;100.00
36014;BME280;22275;43.208;27.620;2023-06-22T04:47:05;101551.28;;;25.96;100.00
36014;BME280;22275;43.208;27.620;2023-06-22T04:49:34;101551.97;;;25.90;100.00
36014;BME280;22275;43.208;27.620;2023-06-22T04:52:06;101543.34;;;26.03;100.00
36014;BME280;22275;43.208;27.620;2023-06-22T04:54:34;101547.06;;;26.02;100.00
36014;BME280;22275;43.208;27.620;2023-06-22T04:57:01;101557.53;;;25.97;100.00
36014;BME280;22275;43.208;27.620;2023-06-22T04:59:30;101560.22;;;26.05;100.00
36014;BME280;22275;43.208;27.620;2023-06-22T05:02:01;101555.16;;;26.18;100.00
36014;BME280;22275;43.208;27.620;2023-06-22T05:04:29;101556.16;;;26.09;100.00
36014;BME280;22275;43.208;27.620;2023-06-22T05:06:59;101545.03;;;26.04;100.00
36014;BME280;22275;43.208;27.620;2023-06-22T05:09:28;101546.91;;;26.19;100.00
36014;BME280;22275;43.208;27.620;2023-06-22T05:11:56;101554.75;;;26.37;100.00
36014;BME280;22275;43.208;27.620;2023-06-22T05:14:23;101552.75;;;26.39;100.00
36014;BME280;22275;43.208;27.620;2023-06-22T05:16:50;101562.78;;;26.61;100.00
36014;BME280;22275;43.208;27.620;2023-06-22T05:19:18;101548.47;;;26.53;100.00
36014;BME280;22275;43.208;27.620;2023-06-22T05:21:45;101554.78;;;26.76;100.00
36014;BME280;22275;43.208;27.620;2023-06-22T05:24:12;101549.94;;;27.02;100.00
36014;BME280;22275;43.208;27.620;2023-06-22T05:26:41;101553.19;;;26.98;100.00
36014;BME280;22275;43.208;27.620;2023-06-22T05:29:09;101562.50;;;26.95;100.00
36014;BME280;22275;43.208;27.620;2023-06-22T05:31:36;101557.25;;;26.94;100.00
36014;BME280;22275;43.208;27.620;2023-06-22T05:34:03;101555.59;;;26.93;100.00
36014;BME280;22275;43.208;27.620;2023-06-22T05:36:31;101554.53;;;27.02;100.00
36014;BME280;22275;43.208;27.620;2023-06-22T05:38:58;101539.47;;;26.99;100.00
36014;BME280;22275;43.208;27.620;2023-06-22T05:41:25;101542.84;;;27.01;100.00
36014;BME280;22275;43.208;27.620;2023-06-22T05:43:54;101547.56;;;27.30;100.00
36014;BME280;22275;43.208;27.620;2023-06-22T05:46:21;101544.47;;;27.64;100.00
36014;BME280;22275;43.208;27.620;2023-06-22T05:48:49;101542.13;;;28.27;100.00
36014;BME280;22275;43.208;27.620;2023-06-22T05:51:16;101545.41;;;28.52;100.00
36014;BME280;22275;43.208;27.620;2023-06-22T05:53:43;101525.78;;;28.50;100.00
36014;BME280;22275;43.208;27.620;2023-06-22T05:56:15;101535.13;;;28.33;100.00
36014;BME280;22275;43.208;27.620;2023-06-22T05:58:42;101535.13;;;28.04;100.00
36014;BME280;22275;43.208;27.620;2023-06-22T06:01:11;101536.28;;;27.86;100.00
36014;BME280;22275;43.208;27.620;2023-06-22T06:03:40;101528.31;;;27.70;100.00
36014;BME280;22275;43.208;27.620;2023-06-22T06:06:07;101528.88;;;28.03;100.00
36014;BME280;22275;43.208;27.620;2023-06-22T06:08:36;101537.88;;;27.81;100.00
36014;BME280;22275;43.208;27.620;2023-06-22T06:11:03;101539.50;;;28.05;100.00
36014;BME280;22275;43.208;27.620;2023-06-22T06:13:31;101527.03;;;27.95;100.00
36014;BME280;22275;43.208;27.620;2023-06-22T06:15:58;101531.13;;;28.14;100.00
36014;BME280;22275;43.208;27.620;2023-06-22T06:18:31;101529.91;;;28.46;100.00
36014;BME280;22275;43.208;27.620;2023-06-22T06:20:59;101529.84;;;28.90;100.00
36014;BME280;22275;43.208;27.620;2023-06-22T06:23:26;101522.47;;;29.20;100.00
36014;BME280;22275;43.208;27.620;2023-06-22T06:25:53;101531.75;;;28.60;100.00
36014;BME280;22275;43.208;27.620;2023-06-22T06:28:22;101532.41;;;28.47;100.00
36014;BME280;22275;43.208;27.620;2023-06-22T06:30:49;101534.75;;;28.80;100.00
36014;BME280;22275;43.208;27.620;2023-06-22T06:33:18;101537.38;;;29.09;100.00
36014;BME280;22275;43.208;27.620;2023-06-22T06:35:48;101533.88;;;28.94;100.00
36014;BME280;22275;43.208;27.620;2023-06-22T06:38:15;101533.88;;;29.15;100.00
36014;BME280;22275;43.208;27.620;2023-06-22T06:40:42;101534.38;;;29.40;100.00
36014;BME280;22275;43.208;27.620;2023-06-22T06:43:10;101528.22;;;29.74;100.00
36014;BME280;22275;43.208;27.620;2023-06-22T06:45:38;101524.38;;;29.89;100.00
36014;BME280;22275;43.208;27.620;2023-06-22T06:48:05;101529.81;;;29.89;100.00
36014;BME280;22275;43.208;27.620;2023-06-22T06:50:33;101521.69;;;30.24;100.00
36014;BME280;22275;43.208;27.620;2023-06-22T06:53:02;101521.00;;;30.49;100.00
36014;BME280;22275;43.208;27.620;2023-06-22T06:55:31;101518.56;;;30.61;100.00
36014;BME280;22275;43.208;27.620;2023-06-22T06:57:58;101516.06;;;30.32;100.00
36014;BME280;22275;43.208;27.620;2023-06-22T07:00:25;101517.00;;;30.11;100.00
36014;BME280;22275;43.208;27.620;2023-06-22T07:02:53;101513.34;;;30.32;100.00
36014;BME280;22275;43.208;27.620;2023-06-22T07:05:20;101528.97;;;30.51;100.00
36014;BME280;22275;43.208;27.620;2023-06-22T07:07:47;101532.84;;;30.76;100.00
36014;BME280;22275;43.208;27.620;2023-06-22T07:10:16;101520.81;;;30.98;100.00
36014;BME280;22275;43.208;27.620;2023-06-22T07:12:43;101519.16;;;31.04;100.00
36014;BME280;22275;43.208;27.620;2023-06-22T07:15:11;101521.69;;;31.18;100.00
36014;BME280;22275;43.208;27.620;2023-06-22T07:17:39;101504.53;;;31.38;100.00
36014;BME280;22275;43.208;27.620;2023-06-22T07:20:07;101507.50;;;31.69;100.00
36014;BME280;22275;43.208;27.620;2023-06-22T07:22:36;101509.59;;;31.80;100.00
36014;BME280;22275;43.208;27.620;2023-06-22T07:25:04;101505.22;;;31.53;100.00
36014;BME280;22275;43.208;27.620;2023-06-22T07:27:36;101508.72;;;31.47;100.00
36014;BME280;22275;43.208;27.620;2023-06-22T07:30:06;101502.88;;;31.63;100.00
36014;BME280;22275;43.208;27.620;2023-06-22T07:32:34;101513.13;;;31.35;100.00
36014;BME280;22275;43.208;27.620;2023-06-22T07:35:02;101517.13;;;31.39;100.00
36014;BME280;22275;43.208;27.620;2023-06-22T07:37:30;101504.94;;;31.15;100.00
36014;BME280;22275;43.208;27.620;2023-06-22T07:39:59;101516.88;;;31.33;100.00
36014;BME280;22275;43.208;27.620;2023-06-22T07:42:26;101508.50;;;31.35;100.00
36014;BME280;22275;43.208;27.620;2023-06-22T07:44:59;101514.19;;;31.60;100.00
36014;BME280;22275;43.208;27.620;2023-06-22T07:47:28;101514.19;;;31.86;100.00
36014;BME280;22275;43.208;27.620;2023-06-22T07:49:58;101508.53;;;31.68;100.00
36014;BME280;22275;43.208;27.620;2023-06-22T07:52:27;101502.06;;;31.56;100.00
36014;BME280;22275;43.208;27.620;2023-06-22T07:54:54;101502.47;;;31.53;100.00
36014;BME280;22275;43.208;27.620;2023-06-22T07:57:21;101508.75;;;31.60;100.00
36014;BME280;22275;43.208;27.620;2023-06-22T07:59:49;101505.19;;;31.66;100.00
36014;BME280;22275;43.208;27.620;2023-06-22T08:02:18;101508.66;;;32.32;100.00
36014;BME280;22275;43.208;27.620;2023-06-22T08:04:45;101505.28;;;32.43;100.00
36014;BME280;22275;43.208;27.620;2023-06-22T08:07:12;101511.59;;;32.37;100.00
36014;BME280;22275;43.208;27.620;2023-06-22T08:09:46;101507.41;;;32.34;100.00
36014;BME280;22275;43.208;27.620;2023-06-22T08:12:14;101503.84;;;32.27;100.00
36014;BME280;22275;43.208;27.620;2023-06-22T08:14:42;101499.41;;;32.39;100.00
36014;BME280;22275;43.208;27.620;2023-06-22T08:17:12;101496.38;;;32.10;100.00
36014;BME280;22275;43.208;27.620;2023-06-22T08:19:41;101502.41;;;31.99;100.00
36014;BME280;22275;43.208;27.620;2023-06-22T08:22:08;101493.34;;;32.37;100.00
36014;BME280;22275;43.208;27.620;2023-06-22T08:24:35;101486.38;;;32.55;100.00
36014;BME280;22275;43.208;27.620;2023-06-22T08:27:03;101487.66;;;32.39;100.00
36014;BME280;22275;43.208;27.620;2023-06-22T08:29:31;101495.50;;;32.16;100.00
36014;BME280;22275;43.208;27.620;2023-06-22T08:31:58;101496.06;;;32.31;100.00
36014;BME280;22275;43.208;27.620;2023-06-22T08:34:25;101494.88;;;32.07;100.00
36014;BME280;22275;43.208;27.620;2023-06-22T08:36:55;101493.44;;;31.98;100.00
36014;BME280;22275;43.208;27.620;2023-06-22T08:39:22;101490.56;;;32.57;100.00
36014;BME280;22275;43.208;27.620;2023-06-22T08:41:49;101493.00;;;32.72;100.00
36014;BME280;22275;43.208;27.620;2023-06-22T08:44:18;101491.91;;;32.28;100.00
36014;BME280;22275;43.208;27.620;2023-06-22T08:46:46;101492.38;;;31.86;100.00
36014;BME280;22275;43.208;27.620;2023-06-22T08:49:13;101491.13;;;31.82;100.00
36014;BME280;22275;43.208;27.620;2023-06-22T08:51:40;101488.63;;;31.87;100.00
36014;BME280;22275;43.208;27.620;2023-06-22T08:54:11;101487.16;;;32.04;100.00
36014;BME280;22275;43.208;27.620;2023-06-22T08:56:38;101491.53;;;31.79;100.00
36014;BME280;22275;43.208;27.620;2023-06-22T08:59:05;101486.13;;;31.72;100.00
36014;BME280;22275;43.208;27.620;2023-06-22T09:01:33;101487.91;;;32.31;100.00
36014;BME280;22275;43.208;27.620;2023-06-22T09:04:00;101474.59;;;32.61;100.00
36014;BME280;22275;43.208;27.620;2023-06-22T09:06:29;101473.28;;;33.01;100.00
36014;BME280;22275;43.208;27.620;2023-06-22T09:08:57;101464.84;;;32.78;100.00
36014;BME280;22275;43.208;27.620;2023-06-22T09:11:26;101471.63;;;32.69;100.00
36014;BME280;22275;43.208;27.620;2023-06-22T09:13:54;101479.63;;;32.51;100.00
36014;BME280;22275;43.208;27.620;2023-06-22T09:16:21;101474.28;;;32.24;100.00
36014;BME280;22275;43.208;27.620;2023-06-22T09:18:48;101475.63;;;32.60;100.00
36014;BME280;22275;43.208;27.620;2023-06-22T09:21:16;101475.81;;;33.09;100.00
36014;BME280;22275;43.208;27.620;2023-06-22T09:23:43;101467.75;;;33.45;100.00
36014;BME280;22275;43.208;27.620;2023-06-22T09:26:13;101482.38;;;32.95;100.00
36014;BME280;22275;43.208;27.620;2023-06-22T09:28:41;101467.75;;;32.83;100.00
36014;BME280;22275;43.208;27.620;2023-06-22T09:31:09;101473.47;;;32.75;100.00
36014;BME280;22275;43.208;27.620;2023-06-22T09:33:36;101472.41;;;32.76;100.00
36014;BME280;22275;43.208;27.620;2023-06-22T09:36:04;101475.06;;;32.89;100.00
36014;BME280;22275;43.208;27.620;2023-06-22T09:38:34;101474.84;;;32.46;100.00
36014;BME280;22275;43.208;27.620;2023-06-22T09:41:01;101466.75;;;32.71;100.00
36014;BME280;22275;43.208;27.620;2023-06-22T09:43:29;101465.50;;;33.05;100.00
36014;BME280;22275;43.208;27.620;2023-06-22T09:45:58;101475.06;;;32.89;100.00
36014;BME280;22275;43.208;27.620;2023-06-22T09:48:25;101480.53;;;32.38;100.00
36014;BME280;22275;43.208;27.620;2023-06-22T09:50:52;101472.06;;;32.97;100.00
36014;BME280;22275;43.208;27.620;2023-06-22T09:53:19;101466.28;;;33.43;100.00
36014;BME280;22275;43.208;27.620;2023-06-22T09:55:46;101470.53;;;33.08;100.00
36014;BME280;22275;43.208;27.620;2023-06-22T09:58:13;101464.59;;;33.42;100.00
36014;BME280;22275;43.208;27.620;2023-06-22T10:00:40;101464.56;;;33.73;100.00
36014;BME280;22275;43.208;27.620;2023-06-22T10:03:09;101477.09;;;33.31;100.00
36014;BME280;22275;43.208;27.620;2023-06-22T10:05:36;101483.88;;;32.91;100.00
36014;BME280;22275;43.208;27.620;2023-06-22T10:08:04;101472.09;;;33.28;100.00
36014;BME280;22275;43.208;27.620;2023-06-22T10:10:33;101466.00;;;33.26;100.00
36014;BME280;22275;43.208;27.620;2023-06-22T10:13:07;101466.06;;;33.44;100.00
36014;BME280;22275;43.208;27.620;2023-06-22T10:15:36;101465.06;;;33.14;100.00
36014;BME280;22275;43.208;27.620;2023-06-22T10:18:03;101461.44;;;33.20;100.00
36014;BME280;22275;43.208;27.620;2023-06-22T10:20:32;101459.91;;;33.24;100.00
36014;BME280;22275;43.208;27.620;2023-06-22T10:23:00;101461.44;;;33.20;100.00
36014;BME280;22275;43.208;27.620;2023-06-22T10:25:27;101465.38;;;32.93;100.00
36014;BME280;22275;43.208;27.620;2023-06-22T10:27:54;101458.59;;;33.33;100.00
36014;BME280;22275;43.208;27.620;2023-06-22T10:30:21;101462.59;;;33.55;100.00
36014;BME280;22275;43.208;27.620;2023-06-22T10:32:49;101451.19;;;33.65;100.00
36014;BME280;22275;43.208;27.620;2023-06-22T10:35:16;101454.16;;;33.82;100.00
36014;BME280;22275;43.208;27.620;2023-06-22T10:37:45;101449.19;;;34.33;100.00
36014;BME280;22275;43.208;27.620;2023-06-22T10:40:13;101453.22;;;33.94;100.00
36014;BME280;22275;43.208;27.620;2023-06-22T10:42:40;101444.63;;;34.27;100.00
36014;BME280;22275;43.208;27.620;2023-06-22T10:45:08;101439.66;;;33.63;100.00
36014;BME280;22275;43.208;27.620;2023-06-22T10:47:36;101444.53;;;33.54;100.00
36014;BME280;22275;43.208;27.620;2023-06-22T10:50:05;101443.16;;;33.70;100.00
36014;BME280;22275;43.208;27.620;2023-06-22T10:52:32;101447.97;;;33.43;100.00
36014;BME280;22275;43.208;27.620;2023-06-22T10:55:01;101430.53;;;33.69;100.00
36014;BME280;22275;43.208;27.620;2023-06-22T10:57:28;101419.47;;;33.82;100.00
36014;BME280;22275;43.208;27.620;2023-06-22T10:59:55;101420.22;;;33.71;100.00
36014;BME280;22275;43.208;27.620;2023-06-22T11:02:23;101426.25;;;34.16;100.00
36014;BME280;22275;43.208;27.620;2023-06-22T11:04:50;101415.94;;;34.48;100.00
36014;BME280;22275;43.208;27.620;2023-06-22T11:07:17;101411.94;;;34.92;100.00
36014;BME280;22275;43.208;27.620;2023-06-22T11:09:44;101413.31;;;34.23;100.00
36014;BME280;22275;43.208;27.620;2023-06-22T11:12:13;101403.72;;;34.92;100.00
36014;BME280;22275;43.208;27.620;2023-06-22T11:14:40;101397.84;;;34.65;100.00
36014;BME280;22275;43.208;27.620;2023-06-22T11:17:07;101406.28;;;34.63;100.00
36014;BME280;22275;43.208;27.620;2023-06-22T11:19:34;101404.34;;;35.05;100.00
36014;BME280;22275;43.208;27.620;2023-06-22T11:22:02;101406.75;;;35.02;100.00
36014;BME280;22275;43.208;27.620;2023-06-22T11:24:29;101404.84;;;35.14;100.00
36014;BME280;22275;43.208;27.620;2023-06-22T11:26:56;101404.19;;;34.89;100.00
36014;BME280;22275;43.208;27.620;2023-06-22T11:29:25;101413.03;;;34.91;100.00
36014;BME280;22275;43.208;27.620;2023-06-22T11:31:52;101414.47;;;34.63;100.00
36014;BME280;22275;43.208;27.620;2023-06-22T11:34:19;101410.28;;;34.91;100.00
36014;BME280;22275;43.208;27.620;2023-06-22T11:36:46;101404.19;;;34.89;100.00
36014;BME280;22275;43.208;27.620;2023-06-22T11:39:14;101404.16;;;35.18;100.00
36014;BME280;22275;43.208;27.620;2023-06-22T11:41:41;101407.75;;;35.77;100.00
36014;BME280;22275;43.208;27.620;2023-06-22T11:44:08;101399.75;;;34.64;100.00
36014;BME280;22275;43.208;27.620;2023-06-22T11:46:38;101429.38;;;34.49;100.00
36014;BME280;22275;43.208;27.620;2023-06-22T11:49:05;101406.53;;;35.15;100.00
36014;BME280;22275;43.208;27.620;2023-06-22T11:51:32;101402.59;;;35.22;100.00
36014;BME280;22275;43.208;27.620;2023-06-22T11:53:59;101406.47;;;34.32;100.00
36014;BME280;22275;43.208;27.620;2023-06-22T11:56:27;101420.16;;;33.96;100.00
36014;BME280;22275;43.208;27.620;2023-06-22T11:58:54;101402.94;;;33.77;100.00
36014;BME280;22275;43.208;27.620;2023-06-22T12:01:22;101399.75;;;33.55;100.00
36014;BME280;22275;43.208;27.620;2023-06-22T12:03:51;101406.97;;;34.11;100.00
36014;BME280;22275;43.208;27.620;2023-06-22T12:06:18;101389.81;;;34.93;100.00
36014;BME280;22275;43.208;27.620;2023-06-22T12:08:45;101386.91;;;34.65;100.00
36014;BME280;22275;43.208;27.620;2023-06-22T12:11:12;101392.97;;;33.83;100.00
36014;BME280;22275;43.208;27.620;2023-06-22T12:13:39;101391.66;;;34.03;100.00
36014;BME280;22275;43.208;27.620;2023-06-22T12:16:06;101395.38;;;33.73;100.00
36014;BME280;22275;43.208;27.620;2023-06-22T12:18:33;101400.63;;;33.31;100.00
36014;BME280;22275;43.208;27.620;2023-06-22T12:21:02;101406.63;;;33.15;100.00
36014;BME280;22275;43.208;27.620;2023-06-22T12:23:30;101417.00;;;33.31;100.00
36014;BME280;22275;43.208;27.620;2023-06-22T12:25:57;101406.78;;;33.70;100.00
36014;BME280;22275;43.208;27.620;2023-06-22T12:28:25;101407.25;;;33.85;100.00
36014;BME280;22275;43.208;27.620;2023-06-22T12:30:52;101400.72;;;33.86;100.00
36014;BME280;22275;43.208;27.620;2023-06-22T12:33:20;101397.50;;;33.89;100.00
36014;BME280;22275;43.208;27.620;2023-06-22T12:35:47;101401.94;;;33.72;100.00